Terminal Aerodrome Forecast
Issued by NWS Cleveland, OH

Home | Current Version | Previous Version | Text Only | Print | Product List | Glossary Off
Versions: 1 2 3 4 5 6 7 8 9 10 11 12 13 14 15 16 17 18 19 20 21 22 23 24 25 26 27 28 29 30 31 32 33 34 35

000
FTUS41 KCLE 261900 AAA
TAFCLE
TAF AMD
KCLE 261957Z 2620/2724 33010KT P6SM OVC007
     FM262100 30010KT P6SM OVC015
     FM262230 30010KT P6SM BKN030
     FM270200 31009KT P6SM BKN040
     FM271100 32008KT P6SM BKN019 OVC025
     FM272000 34014KT P6SM -SN OVC030=

USA.gov is the U.S. government's official web portal to all federal, state and local government web resources and services.